createdAt,value
2017-12-19T00:00:40.049Z,0.39
2017-12-19T00:01:40.041Z,0.42
2017-12-19T00:02:40.033Z,0.37
2017-12-19T00:03:40.025Z,0.40
2017-12-19T00:04:40.018Z,0.45
2017-12-19T00:05:40.011Z,0.47
2017-12-19T00:06:40.002Z,0.40
2017-12-19T00:07:39.995Z,0.49
2017-12-19T00:08:39.988Z,0.51
2017-12-19T00:09:39.980Z,0.56
2017-12-19T00:10:39.972Z,0.59
2017-12-19T00:11:39.966Z,0.59
2017-12-19T00:12:39.958Z,0.66
2017-12-19T00:13:39.950Z,0.52
2017-12-19T00:14:39.942Z,0.51
2017-12-19T00:15:39.934Z,0.48
2017-12-19T00:16:39.927Z,0.45
2017-12-19T00:17:39.920Z,0.44
2017-12-19T00:18:39.912Z,0.44
2017-12-19T00:19:39.905Z,0.39
2017-12-19T00:20:39.898Z,0.49
2017-12-19T00:21:39.891Z,0.31
2017-12-19T00:22:39.882Z,0.44
2017-12-19T00:23:39.874Z,0.48
2017-12-19T00:24:39.869Z,0.42
2017-12-19T00:25:39.860Z,0.37
2017-12-19T00:26:39.855Z,0.55
2017-12-19T00:27:39.846Z,0.51
2017-12-19T00:28:39.838Z,0.51
2017-12-19T00:29:39.829Z,0.58
2017-12-19T00:30:39.822Z,0.56
2017-12-19T00:31:39.814Z,0.67
2017-12-19T00:32:39.807Z,0.59
2017-12-19T00:33:39.800Z,0.67
2017-12-19T00:34:39.791Z,0.59
2017-12-19T00:35:39.785Z,0.63
2017-12-19T00:36:39.777Z,0.49
2017-12-19T00:37:39.769Z,0.44
2017-12-19T00:38:39.761Z,0.58
2017-12-19T00:39:39.753Z,0.44
2017-12-19T00:40:39.747Z,0.42
2017-12-19T00:41:39.739Z,0.26
2017-12-19T00:42:39.731Z,0.24
2017-12-19T00:43:39.724Z,0.30
2017-12-19T00:44:39.716Z,0.27
2017-12-19T00:45:39.710Z,0.26
2017-12-19T00:46:39.701Z,0.19
2017-12-19T00:47:39.693Z,0.24
2017-12-19T00:48:39.687Z,0.19
2017-12-19T00:49:39.679Z,0.29
2017-12-19T00:50:39.671Z,0.29
2017-12-19T00:51:39.664Z,0.26
2017-12-19T00:52:39.657Z,0.18
2017-12-19T00:53:39.649Z,0.24
2017-12-19T00:54:39.640Z,0.24
2017-12-19T00:55:39.632Z,0.26
2017-12-19T00:56:39.627Z,0.26
2017-12-19T00:57:39.618Z,0.27
2017-12-19T00:58:39.610Z,0.27
2017-12-19T00:59:39.602Z,0.24
2017-12-19T01:00:39.594Z,0.19
2017-12-19T01:01:39.589Z,0.24
2017-12-19T01:02:39.578Z,0.23
2017-12-19T01:03:39.573Z,0.20
2017-12-19T01:04:39.563Z,0.23
2017-12-19T01:05:39.558Z,0.27
2017-12-19T01:06:39.548Z,0.29
2017-12-19T01:07:39.541Z,0.33
2017-12-19T01:08:39.534Z,0.26
2017-12-19T01:09:39.527Z,0.24
2017-12-19T01:10:39.519Z,0.39
2017-12-19T01:11:39.511Z,0.26
2017-12-19T01:12:39.504Z,0.29
2017-12-19T01:13:39.496Z,0.31
2017-12-19T01:14:39.487Z,0.45
2017-12-19T01:15:39.480Z,0.44
2017-12-19T01:16:39.472Z,0.45
2017-12-19T01:17:39.466Z,0.56
2017-12-19T01:18:39.458Z,0.45
2017-12-19T01:19:39.450Z,0.56
2017-12-19T01:20:39.443Z,0.45
2017-12-19T01:21:39.435Z,0.48
2017-12-19T01:22:39.474Z,0.52
2017-12-19T01:23:39.421Z,0.42
2017-12-19T01:24:39.412Z,0.44
2017-12-19T01:25:39.405Z,0.42
2017-12-19T01:26:39.397Z,0.48
2017-12-19T01:27:39.427Z,0.44
2017-12-19T01:28:39.383Z,0.51
2017-12-19T01:29:39.374Z,0.61
2017-12-19T01:30:39.373Z,0.58
2017-12-19T01:31:39.358Z,0.47
2017-12-19T01:32:39.351Z,0.44
2017-12-19T01:33:39.344Z,0.37
2017-12-19T01:34:39.337Z,0.44
2017-12-19T01:35:39.329Z,0.40
2017-12-19T01:36:39.321Z,0.44
2017-12-19T01:37:39.314Z,0.51
2017-12-19T01:38:39.305Z,0.52
2017-12-19T01:39:39.298Z,0.52
2017-12-19T01:40:39.291Z,0.55
2017-12-19T01:41:39.289Z,0.48
2017-12-19T01:42:39.277Z,0.59
2017-12-19T01:43:39.278Z,0.45
2017-12-19T01:44:39.261Z,0.47
2017-12-19T01:45:39.253Z,0.45
2017-12-19T01:46:39.245Z,0.49
2017-12-19T01:47:39.238Z,0.66
2017-12-19T01:48:39.231Z,0.58
2017-12-19T01:49:39.223Z,0.56
2017-12-19T01:50:39.215Z,0.51
2017-12-19T01:51:39.208Z,0.63
2017-12-19T01:52:39.204Z,0.48
2017-12-19T01:53:39.192Z,0.47
2017-12-19T01:54:39.185Z,0.39
2017-12-19T01:55:39.176Z,0.49
2017-12-19T01:56:39.171Z,0.47
2017-12-19T01:57:39.162Z,0.49
2017-12-19T01:58:39.154Z,0.45
2017-12-19T01:59:39.147Z,0.55
2017-12-19T02:00:39.139Z,0.45
2017-12-19T02:01:39.133Z,0.42
2017-12-19T02:02:39.123Z,0.42
2017-12-19T02:03:39.118Z,0.49
2017-12-19T02:04:39.111Z,0.55
2017-12-19T02:05:39.101Z,0.47
2017-12-19T02:06:39.095Z,0.49
2017-12-19T02:07:39.086Z,0.55
2017-12-19T02:08:39.079Z,0.61
2017-12-19T02:09:39.071Z,0.64
2017-12-19T02:10:39.063Z,0.61
2017-12-19T02:11:39.056Z,0.45
2017-12-19T02:12:39.048Z,0.56
2017-12-19T02:13:39.042Z,0.59
2017-12-19T02:14:39.034Z,0.58
2017-12-19T02:15:39.025Z,0.64
2017-12-19T02:16:39.018Z,0.63
2017-12-19T02:17:39.011Z,0.58
2017-12-19T02:18:39.004Z,0.64
2017-12-19T02:19:38.996Z,0.67
2017-12-19T02:20:38.989Z,0.59
2017-12-19T02:21:38.980Z,0.68
2017-12-19T02:22:38.972Z,0.64
2017-12-19T02:23:38.965Z,0.70
2017-12-19T02:24:38.959Z,0.67
2017-12-19T02:25:38.952Z,0.70
2017-12-19T02:26:38.944Z,0.68
2017-12-19T02:27:38.942Z,0.66
2017-12-19T02:28:38.938Z,0.73
2017-12-19T02:29:38.927Z,0.67
2017-12-19T02:30:38.913Z,0.63
2017-12-19T02:31:38.912Z,0.67
2017-12-19T02:32:38.899Z,0.64
2017-12-19T02:33:38.892Z,0.63
2017-12-19T02:34:38.882Z,0.59
2017-12-19T02:35:38.877Z,0.66
2017-12-19T02:36:38.868Z,0.55
2017-12-19T02:37:38.860Z,0.59
2017-12-19T02:38:38.853Z,0.61
2017-12-19T02:39:38.844Z,0.63
2017-12-19T02:40:38.839Z,0.49
2017-12-19T02:41:38.830Z,0.58
2017-12-19T02:42:38.823Z,0.48
2017-12-19T02:43:38.816Z,0.58
2017-12-19T02:44:38.810Z,0.67
2017-12-19T02:45:38.801Z,0.61
2017-12-19T02:46:38.793Z,0.52
2017-12-19T02:47:38.786Z,0.48
2017-12-19T02:48:38.778Z,0.49
2017-12-19T02:49:38.771Z,0.49
2017-12-19T02:50:38.763Z,0.55
2017-12-19T02:51:38.754Z,0.47
2017-12-19T02:52:38.749Z,0.49
2017-12-19T02:53:38.741Z,0.47
2017-12-19T02:54:38.733Z,0.61
2017-12-19T02:55:38.726Z,0.44
2017-12-19T02:56:38.717Z,0.45
2017-12-19T02:57:38.710Z,0.45
2017-12-19T02:58:38.702Z,0.52
2017-12-19T02:59:38.695Z,0.48
2017-12-19T03:00:38.689Z,0.47
2017-12-19T03:01:38.680Z,0.59
2017-12-19T03:02:38.673Z,0.52
2017-12-19T03:03:38.666Z,0.40
2017-12-19T03:04:38.659Z,0.39
2017-12-19T03:05:38.653Z,0.40
2017-12-19T03:06:38.642Z,0.45
2017-12-19T03:07:38.635Z,0.42
2017-12-19T03:08:38.628Z,0.52
2017-12-19T03:09:38.621Z,0.45
2017-12-19T03:10:38.612Z,0.58
2017-12-19T03:11:38.606Z,0.52
2017-12-19T03:12:38.597Z,0.58
2017-12-19T03:13:38.590Z,0.58
2017-12-19T03:14:38.582Z,0.61
2017-12-19T03:15:38.574Z,0.51
2017-12-19T03:16:38.568Z,0.42
2017-12-19T03:17:38.560Z,0.52
2017-12-19T03:18:38.553Z,0.45
2017-12-19T03:19:38.546Z,0.52
2017-12-19T03:20:38.537Z,0.48
2017-12-19T03:21:38.530Z,0.55
2017-12-19T03:22:38.523Z,0.49
2017-12-19T03:23:38.515Z,0.47
2017-12-19T03:24:38.506Z,0.45
2017-12-19T03:25:38.500Z,0.45
2017-12-19T03:26:38.530Z,0.49
2017-12-19T03:27:38.484Z,0.66
2017-12-19T03:28:38.478Z,0.49
2017-12-19T03:29:38.471Z,0.58
2017-12-19T03:30:38.463Z,0.49
2017-12-19T03:31:38.456Z,0.49
2017-12-19T03:32:38.448Z,0.61
2017-12-19T03:33:38.439Z,0.63
2017-12-19T03:34:38.433Z,0.55
2017-12-19T03:35:38.424Z,0.56
2017-12-19T03:36:38.417Z,0.49
2017-12-19T03:37:38.409Z,0.51
2017-12-19T03:38:38.402Z,0.59
2017-12-19T03:39:38.395Z,0.51
2017-12-19T03:40:38.387Z,0.48
2017-12-19T03:41:38.380Z,0.39
2017-12-19T03:42:38.371Z,0.48
2017-12-19T03:43:38.365Z,0.44
2017-12-19T03:44:38.357Z,0.37
2017-12-19T03:45:38.350Z,0.44
2017-12-19T03:46:38.342Z,0.36
2017-12-19T03:47:38.334Z,0.29
2017-12-19T03:48:38.326Z,0.40
2017-12-19T03:49:38.319Z,0.45
2017-12-19T03:50:38.312Z,0.48
2017-12-19T03:51:38.305Z,0.48
2017-12-19T03:52:38.296Z,0.39
2017-12-19T03:53:38.340Z,0.44
2017-12-19T03:54:38.280Z,0.56
2017-12-19T03:55:38.272Z,0.47
2017-12-19T03:56:38.267Z,0.49
2017-12-19T03:57:38.259Z,0.45
2017-12-19T03:58:38.251Z,0.61
2017-12-19T03:59:38.242Z,0.44
2017-12-19T04:00:38.236Z,0.39
2017-12-19T04:01:38.229Z,0.44
2017-12-19T04:02:38.220Z,0.45
2017-12-19T04:03:38.214Z,0.34
2017-12-19T04:04:38.205Z,0.36
2017-12-19T04:05:38.198Z,0.39
2017-12-19T04:06:38.190Z,0.31
2017-12-19T04:07:38.182Z,0.49
2017-12-19T04:08:38.176Z,0.40
2017-12-19T04:09:38.167Z,0.44
2017-12-19T04:10:38.159Z,0.48
2017-12-19T04:11:38.153Z,0.49
2017-12-19T04:12:38.145Z,0.39
2017-12-19T04:13:38.138Z,0.37
2017-12-19T04:14:38.129Z,0.39
2017-12-19T04:15:38.121Z,0.42
2017-12-19T04:16:38.114Z,0.36
2017-12-19T04:17:38.107Z,0.30
2017-12-19T04:18:38.099Z,0.31
2017-12-19T04:19:38.092Z,0.23
2017-12-19T04:20:38.085Z,0.26
2017-12-19T04:21:38.077Z,0.33
2017-12-19T04:22:38.067Z,0.16
2017-12-19T04:23:38.060Z,0.16
2017-12-19T04:24:38.052Z,0.16
2017-12-19T04:25:38.045Z,0.12
2017-12-19T04:26:38.036Z,0.15
2017-12-19T04:27:38.028Z,0.20
2017-12-19T04:28:38.022Z,0.05
2017-12-19T04:29:38.013Z,0.13
2017-12-19T04:30:38.007Z,0.11
2017-12-19T04:31:37.998Z,0.11
2017-12-19T04:32:37.991Z,0.13
2017-12-19T04:33:37.983Z,0.15
2017-12-19T04:34:37.974Z,0.26
2017-12-19T04:35:37.966Z,0.29
2017-12-19T04:36:37.959Z,0.27
2017-12-19T04:37:37.954Z,0.45
2017-12-19T04:38:37.943Z,0.47
2017-12-19T04:39:37.935Z,0.44
2017-12-19T04:40:37.929Z,0.52
2017-12-19T04:41:37.920Z,0.52
2017-12-19T04:42:37.912Z,0.42
2017-12-19T04:43:37.908Z,0.39
2017-12-19T04:44:37.897Z,0.42
2017-12-19T04:45:37.889Z,0.39
2017-12-19T04:46:37.881Z,0.48
2017-12-19T04:47:37.873Z,0.58
2017-12-19T04:48:37.866Z,0.55
2017-12-19T04:49:37.859Z,0.61
2017-12-19T04:50:37.852Z,0.61
2017-12-19T04:51:37.844Z,0.67
2017-12-19T04:52:37.837Z,0.63
2017-12-19T04:53:37.828Z,0.59
2017-12-19T04:54:37.825Z,0.68
2017-12-19T04:55:37.814Z,0.66
2017-12-19T04:56:37.806Z,0.63
2017-12-19T04:57:37.797Z,0.64
2017-12-19T04:58:37.790Z,0.61
2017-12-19T04:59:37.782Z,0.63
2017-12-19T05:00:37.775Z,0.64
2017-12-19T05:01:37.767Z,0.61
2017-12-19T05:02:37.765Z,0.63
2017-12-19T05:03:37.754Z,0.56
2017-12-19T05:04:37.744Z,0.59
2017-12-19T05:05:37.738Z,0.64
2017-12-19T05:06:37.730Z,0.56
2017-12-19T05:07:37.722Z,0.59
2017-12-19T05:08:37.713Z,0.67
2017-12-19T05:09:37.707Z,0.66
2017-12-19T05:10:37.700Z,0.68
2017-12-19T05:11:37.691Z,0.71
2017-12-19T05:12:37.684Z,0.73
2017-12-19T05:13:37.676Z,0.73
2017-12-19T05:14:37.669Z,0.78
2017-12-19T05:15:37.662Z,0.73
2017-12-19T05:16:37.654Z,0.68
2017-12-19T05:17:37.646Z,0.59
2017-12-19T05:18:37.638Z,0.64
2017-12-19T05:19:37.632Z,0.52
2017-12-19T05:20:37.625Z,0.61
2017-12-19T05:21:37.616Z,0.61
2017-12-19T05:22:37.610Z,0.58
2017-12-19T05:23:37.601Z,0.58
2017-12-19T05:24:37.595Z,0.63
2017-12-19T05:25:37.588Z,0.66
2017-12-19T05:26:37.580Z,0.63
2017-12-19T05:27:37.571Z,0.47
2017-12-19T05:28:37.565Z,0.47
2017-12-19T05:29:37.557Z,0.58
2017-12-19T05:30:37.550Z,0.47
2017-12-19T05:31:37.542Z,0.59
2017-12-19T05:32:37.534Z,0.56
2017-12-19T05:33:37.527Z,0.59
2017-12-19T05:34:37.518Z,0.59
2017-12-19T05:35:37.510Z,0.66
2017-12-19T05:36:37.506Z,0.67
2017-12-19T05:37:37.497Z,0.71
2017-12-19T05:38:37.488Z,0.67
2017-12-19T05:39:37.481Z,0.59
2017-12-19T05:40:37.474Z,0.67
2017-12-19T05:41:37.467Z,0.56
2017-12-19T05:42:37.460Z,0.51
2017-12-19T05:43:37.451Z,0.49
2017-12-19T05:44:37.445Z,0.48
2017-12-19T05:45:37.436Z,0.48
2017-12-19T05:46:37.428Z,0.49
2017-12-19T05:47:37.427Z,0.39
2017-12-19T05:48:37.415Z,0.29
2017-12-19T05:49:37.408Z,0.45
2017-12-19T05:50:37.398Z,0.44
2017-12-19T05:51:37.391Z,0.56
2017-12-19T05:52:37.384Z,0.51
2017-12-19T05:53:37.377Z,0.51
2017-12-19T05:54:37.368Z,0.59
2017-12-19T05:55:37.363Z,0.58
2017-12-19T05:56:37.353Z,0.56
2017-12-19T05:57:37.347Z,0.64
2017-12-19T05:58:37.339Z,0.52
2017-12-19T05:59:37.330Z,0.63
2017-12-19T06:00:37.323Z,0.67
2017-12-19T06:01:37.317Z,0.66
2017-12-19T06:02:37.308Z,0.70
2017-12-19T06:03:37.302Z,0.67
2017-12-19T06:04:37.294Z,0.73
2017-12-19T06:05:37.286Z,0.76
2017-12-19T06:06:37.278Z,0.73
2017-12-19T06:07:37.272Z,0.71
2017-12-19T06:08:37.263Z,0.71
2017-12-19T06:09:37.257Z,0.64
2017-12-19T06:10:37.248Z,0.63
2017-12-19T06:11:37.241Z,0.61
2017-12-19T06:12:37.233Z,0.68
2017-12-19T06:13:37.226Z,0.74
2017-12-19T06:14:37.218Z,0.74
2017-12-19T06:15:37.212Z,0.66
2017-12-19T06:16:37.203Z,0.71
2017-12-19T06:17:37.196Z,0.66
2017-12-19T06:18:37.190Z,0.76
2017-12-19T06:19:37.181Z,0.78
2017-12-19T06:20:37.175Z,0.70
2017-12-19T06:21:37.173Z,0.81
2017-12-19T06:22:37.159Z,0.71
2017-12-19T06:23:37.151Z,0.67
2017-12-19T06:24:37.144Z,0.67
2017-12-19T06:25:37.138Z,0.56
2017-12-19T06:26:37.128Z,0.63
2017-12-19T06:27:37.122Z,0.59
2017-12-19T06:28:37.114Z,0.42
2017-12-19T06:29:37.106Z,0.52
2017-12-19T06:30:37.100Z,0.49
2017-12-19T06:31:37.091Z,0.44
2017-12-19T06:32:37.085Z,0.37
2017-12-19T06:33:37.077Z,0.29
2017-12-19T06:34:37.069Z,0.27
2017-12-19T06:35:37.063Z,0.31
2017-12-19T06:36:37.054Z,0.44
2017-12-19T06:37:37.047Z,0.45
2017-12-19T06:38:37.040Z,0.44
2017-12-19T06:39:37.031Z,0.63
2017-12-19T06:40:37.024Z,0.66
2017-12-19T06:41:37.017Z,0.55
2017-12-19T06:42:37.009Z,0.70
2017-12-19T06:43:37.002Z,0.71
2017-12-19T06:44:36.994Z,0.63
2017-12-19T06:45:36.987Z,0.61
2017-12-19T06:46:36.978Z,0.67
2017-12-19T06:47:36.973Z,0.61
2017-12-19T06:48:36.964Z,0.58
2017-12-19T06:49:36.956Z,0.52
2017-12-19T06:50:36.949Z,0.47
2017-12-19T06:51:36.942Z,0.64
2017-12-19T06:52:36.933Z,0.61
2017-12-19T06:53:36.927Z,0.61
2017-12-19T06:54:36.918Z,0.66
2017-12-19T06:55:36.911Z,0.68
2017-12-19T06:56:36.903Z,0.66
2017-12-19T06:57:36.897Z,0.63
2017-12-19T06:58:36.888Z,0.67
2017-12-19T06:59:36.881Z,0.63
2017-12-19T07:00:36.875Z,0.70
2017-12-19T07:01:36.866Z,0.77
2017-12-19T07:02:36.859Z,0.73
2017-12-19T07:03:36.851Z,0.68
2017-12-19T07:04:36.844Z,0.68
2017-12-19T07:05:36.837Z,0.71
2017-12-19T07:06:36.828Z,0.68
2017-12-19T07:07:36.821Z,0.77
2017-12-19T07:08:36.814Z,0.74
2017-12-19T07:09:36.806Z,0.74
2017-12-19T07:10:36.798Z,0.66
2017-12-19T07:11:36.792Z,0.61
2017-12-19T07:12:36.785Z,0.67
2017-12-19T07:13:36.777Z,0.76
2017-12-19T07:14:36.770Z,0.67
2017-12-19T07:15:36.762Z,0.78
2017-12-19T07:16:36.754Z,0.76
2017-12-19T07:17:36.752Z,0.70
2017-12-19T07:18:36.739Z,0.74
2017-12-19T07:19:36.733Z,0.76
2017-12-19T07:20:36.724Z,0.77
2017-12-19T07:21:36.717Z,0.85
2017-12-19T07:22:36.709Z,0.82
2017-12-19T07:23:36.701Z,0.85
2017-12-19T07:24:36.695Z,0.78
2017-12-19T07:25:36.688Z,0.82
2017-12-19T07:26:36.681Z,0.76
2017-12-19T07:27:36.673Z,0.76
2017-12-19T07:28:36.666Z,0.77
2017-12-19T07:29:36.659Z,0.74
2017-12-19T07:30:36.649Z,0.73
2017-12-19T07:31:36.643Z,0.70
2017-12-19T07:32:36.635Z,0.76
2017-12-19T07:33:36.629Z,0.63
2017-12-19T07:34:36.628Z,0.66
2017-12-19T07:35:36.612Z,0.68
2017-12-19T07:36:36.609Z,0.70
2017-12-19T07:37:36.598Z,0.77
2017-12-19T07:38:36.598Z,0.84
2017-12-19T07:39:36.583Z,0.88
2017-12-19T07:40:36.575Z,0.95
2017-12-19T07:41:36.570Z,0.94
2017-12-19T07:42:36.560Z,1.02
2017-12-19T07:43:36.553Z,0.95
2017-12-19T07:44:36.548Z,0.99
2017-12-19T07:45:36.540Z,0.99
2017-12-19T07:46:36.530Z,1.00
2017-12-19T07:47:36.525Z,0.88
2017-12-19T07:48:36.516Z,0.89
2017-12-19T07:49:36.510Z,0.86
2017-12-19T07:50:36.501Z,0.86
2017-12-19T07:51:36.494Z,0.86
2017-12-19T07:52:36.488Z,0.84
2017-12-19T07:53:36.481Z,0.81
2017-12-19T07:54:36.475Z,0.84
2017-12-19T07:55:36.466Z,0.81
2017-12-19T07:56:36.459Z,0.70
2017-12-19T07:57:36.451Z,0.63
2017-12-19T07:58:36.444Z,0.67
2017-12-19T07:59:36.436Z,0.68
2017-12-19T08:00:36.429Z,0.67
2017-12-19T08:01:36.422Z,0.73
2017-12-19T08:02:36.412Z,0.73
2017-12-19T08:03:36.405Z,0.81
2017-12-19T08:04:36.398Z,0.71
2017-12-19T08:05:36.391Z,0.81
2017-12-19T08:06:36.383Z,0.81
2017-12-19T08:07:36.376Z,0.89
2017-12-19T08:08:36.370Z,0.88
2017-12-19T08:09:36.363Z,0.84
2017-12-19T08:10:36.353Z,1.03
2017-12-19T08:11:36.347Z,0.94
2017-12-19T08:12:36.339Z,0.95
2017-12-19T08:13:36.334Z,0.92
2017-12-19T08:14:36.325Z,0.78
2017-12-19T08:15:36.318Z,0.85
2017-12-19T08:16:36.310Z,0.76
2017-12-19T08:17:36.304Z,0.77
2017-12-19T08:18:36.295Z,0.74
2017-12-19T08:19:36.288Z,0.77
2017-12-19T08:20:36.484Z,0.78
2017-12-19T08:21:36.274Z,0.88
2017-12-19T08:22:36.267Z,0.82
2017-12-19T08:23:36.259Z,0.77
2017-12-19T08:24:36.252Z,0.84
2017-12-19T08:25:36.246Z,0.85
2017-12-19T08:26:36.237Z,0.91
2017-12-19T08:27:36.230Z,0.84
2017-12-19T08:28:36.223Z,0.92
2017-12-19T08:29:36.217Z,0.94
2017-12-19T08:30:36.208Z,0.94
2017-12-19T08:31:36.322Z,1.02
2017-12-19T08:32:36.194Z,0.99
2017-12-19T08:33:36.188Z,1.12
2017-12-19T08:34:36.180Z,1.06
2017-12-19T08:35:36.173Z,1.20
2017-12-19T08:36:36.165Z,1.14
2017-12-19T08:37:36.160Z,1.16
2017-12-19T08:38:36.158Z,1.20
2017-12-19T08:39:36.145Z,1.27
2017-12-19T08:40:36.137Z,1.24
2017-12-19T08:41:36.131Z,1.31
2017-12-19T08:42:36.122Z,1.32
2017-12-19T08:43:36.115Z,1.28
2017-12-19T08:44:36.110Z,1.34
2017-12-19T08:45:36.103Z,1.22
2017-12-19T08:46:36.096Z,1.12
2017-12-19T08:47:36.088Z,1.20
2017-12-19T08:48:36.081Z,1.16
2017-12-19T08:49:36.078Z,1.16
2017-12-19T08:50:36.065Z,1.20
2017-12-19T08:51:36.060Z,1.14
2017-12-19T08:52:36.052Z,1.13
2017-12-19T08:53:36.047Z,1.25
2017-12-19T08:54:36.038Z,1.24
2017-12-19T08:55:36.031Z,1.30
2017-12-19T08:56:36.025Z,1.38
2017-12-19T08:57:36.018Z,1.38
2017-12-19T08:58:36.010Z,1.46
2017-12-19T08:59:36.004Z,1.43
2017-12-19T09:00:35.997Z,1.43
2017-12-19T09:01:35.991Z,1.45
2017-12-19T09:02:35.983Z,1.42
2017-12-19T09:03:35.976Z,1.40
2017-12-19T09:04:35.970Z,1.31
2017-12-19T09:05:35.961Z,1.27
2017-12-19T09:06:35.954Z,1.30
2017-12-19T09:07:35.953Z,1.34
2017-12-19T09:08:35.946Z,1.34
2017-12-19T09:09:35.935Z,1.38
2017-12-19T09:10:35.928Z,1.43
2017-12-19T09:11:35.920Z,1.50
2017-12-19T09:12:35.916Z,1.46
2017-12-19T09:13:35.911Z,1.50
2017-12-19T09:14:35.900Z,1.49
2017-12-19T09:15:35.894Z,1.57
2017-12-19T09:16:35.887Z,1.52
2017-12-19T09:17:35.880Z,1.56
2017-12-19T09:18:35.872Z,1.61
2017-12-19T09:19:35.866Z,1.63
2017-12-19T09:20:35.859Z,1.68
2017-12-19T09:21:35.876Z,1.81
2017-12-19T09:22:35.847Z,1.76
2017-12-19T09:23:35.840Z,1.75
2017-12-19T09:24:35.832Z,1.75
2017-12-19T09:25:35.827Z,1.75
2017-12-19T09:26:35.819Z,1.79
2017-12-19T09:27:35.814Z,1.89
2017-12-19T09:28:35.806Z,1.92
2017-12-19T09:29:35.800Z,2.04
2017-12-19T09:30:35.818Z,2.01
2017-12-19T09:31:35.787Z,2.04
2017-12-19T09:32:35.781Z,1.97
2017-12-19T09:33:35.776Z,2.00
2017-12-19T09:34:35.769Z,2.15
2017-12-19T09:35:35.771Z,2.21
2017-12-19T09:36:35.756Z,2.16
2017-12-19T09:37:35.750Z,2.16
2017-12-19T09:38:35.742Z,2.15
2017-12-19T09:39:35.736Z,2.21
2017-12-19T09:40:35.729Z,2.19
2017-12-19T09:41:35.723Z,2.23
2017-12-19T09:42:35.717Z,2.18
2017-12-19T09:43:35.711Z,2.22
2017-12-19T09:44:35.705Z,2.36
2017-12-19T09:45:35.697Z,2.32
2017-12-19T09:46:35.691Z,2.36
2017-12-19T09:47:35.684Z,2.40
2017-12-19T09:48:35.680Z,2.41
2017-12-19T09:49:35.673Z,2.39
2017-12-19T09:50:35.666Z,2.30
2017-12-19T09:51:35.968Z,2.25
2017-12-19T09:52:35.654Z,2.36
2017-12-19T09:53:35.648Z,2.36
2017-12-19T09:54:35.642Z,2.37
2017-12-19T09:55:35.635Z,2.36
2017-12-19T09:56:35.629Z,2.41
2017-12-19T09:57:35.623Z,2.32
2017-12-19T09:58:35.616Z,2.22
2017-12-19T09:59:35.612Z,2.22
2017-12-19T10:00:35.604Z,2.21
2017-12-19T10:01:35.598Z,2.22
2017-12-19T10:02:35.593Z,2.18
2017-12-19T10:03:35.585Z,2.15
2017-12-19T10:04:35.580Z,2.12
2017-12-19T10:05:35.575Z,2.10
2017-12-19T10:06:35.567Z,2.14
2017-12-19T10:07:35.562Z,2.10
2017-12-19T10:08:35.556Z,2.22
2017-12-19T10:09:35.551Z,2.22
2017-12-19T10:10:35.543Z,2.34
2017-12-19T10:11:35.540Z,2.39
2017-12-19T10:12:35.532Z,2.41
2017-12-19T10:13:35.526Z,2.57
2017-12-19T10:14:35.518Z,2.54
2017-12-19T10:15:35.514Z,2.57
2017-12-19T10:16:35.554Z,2.73
2017-12-19T10:17:35.524Z,2.73
2017-12-19T10:18:35.496Z,2.73
2017-12-19T10:19:35.490Z,2.75
2017-12-19T10:20:35.485Z,2.73
2017-12-19T10:21:35.478Z,2.91
2017-12-19T10:22:35.491Z,2.91
2017-12-19T10:23:35.468Z,3.11
2017-12-19T10:24:35.461Z,3.19
2017-12-19T10:25:35.456Z,3.21
2017-12-19T10:26:35.451Z,3.27
2017-12-19T10:27:35.477Z,3.18
2017-12-19T10:28:35.439Z,3.06
2017-12-19T10:29:35.434Z,3.09
2017-12-19T10:30:35.429Z,3.19
2017-12-19T10:31:35.423Z,3.15
2017-12-19T10:32:35.418Z,3.29
2017-12-19T10:33:35.413Z,3.34
2017-12-19T10:34:35.409Z,3.49
2017-12-19T10:35:35.427Z,3.31
2017-12-19T10:36:35.398Z,3.43
2017-12-19T10:37:35.400Z,3.16
2017-12-19T10:38:35.388Z,3.22
2017-12-19T10:39:35.384Z,3.27
2017-12-19T10:40:35.379Z,3.33
2017-12-19T10:41:35.373Z,3.31
2017-12-19T10:42:35.367Z,3.34
2017-12-19T10:43:35.362Z,3.55
2017-12-19T10:44:35.358Z,3.48
2017-12-19T10:45:35.352Z,3.37
2017-12-19T10:46:35.348Z,3.37
2017-12-19T10:47:35.343Z,3.31
2017-12-19T10:48:35.351Z,3.30
2017-12-19T10:49:35.334Z,3.31
2017-12-19T10:50:35.326Z,3.16
2017-12-19T10:51:35.323Z,3.18
2017-12-19T10:52:35.318Z,3.26
2017-12-19T10:53:35.313Z,3.26
2017-12-19T10:54:35.307Z,3.26
2017-12-19T10:55:35.302Z,3.11
2017-12-19T10:56:35.298Z,3.09
2017-12-19T10:57:35.294Z,3.12
2017-12-19T10:58:35.288Z,3.09
2017-12-19T10:59:35.282Z,3.11
2017-12-19T11:00:35.278Z,3.21
2017-12-19T11:01:35.273Z,3.29
2017-12-19T11:02:35.266Z,3.31
2017-12-19T11:03:35.262Z,3.30
2017-12-19T11:04:35.257Z,3.48
2017-12-19T11:05:35.252Z,3.46
2017-12-19T11:06:35.246Z,3.26
2017-12-19T11:07:35.241Z,3.30
2017-12-19T11:08:35.238Z,3.37
2017-12-19T11:09:35.232Z,3.41
2017-12-19T11:10:35.226Z,3.48
2017-12-19T11:11:35.221Z,3.53
2017-12-19T11:12:35.217Z,3.59
2017-12-19T11:13:35.217Z,3.59
2017-12-19T11:14:35.208Z,3.64
2017-12-19T11:15:35.202Z,3.71
2017-12-19T11:16:35.198Z,3.66
2017-12-19T11:17:35.194Z,3.55
2017-12-19T11:18:35.189Z,3.43
2017-12-19T11:19:35.182Z,3.49
2017-12-19T11:20:35.180Z,3.31
2017-12-19T11:21:35.175Z,3.31
2017-12-19T11:22:35.169Z,3.21
2017-12-19T11:23:35.165Z,3.30
2017-12-19T11:24:35.161Z,3.24
2017-12-19T11:25:35.156Z,3.41
2017-12-19T11:26:35.150Z,3.36
2017-12-19T11:27:35.147Z,3.29
2017-12-19T11:28:35.141Z,3.40
2017-12-19T11:29:35.137Z,3.49
2017-12-19T11:30:35.131Z,3.55
2017-12-19T11:31:35.127Z,3.56
2017-12-19T11:32:35.124Z,3.71
2017-12-19T11:33:35.119Z,3.73
2017-12-19T11:34:35.115Z,3.81
2017-12-19T11:35:35.109Z,3.85
2017-12-19T11:36:35.104Z,3.68
2017-12-19T11:37:35.101Z,3.41
2017-12-19T11:38:35.096Z,3.48
2017-12-19T11:39:35.092Z,3.40
2017-12-19T11:40:35.088Z,3.26
2017-12-19T11:41:35.083Z,3.18
2017-12-19T11:42:35.079Z,3.08
2017-12-19T11:43:35.073Z,3.11
2017-12-19T11:44:35.068Z,3.11
2017-12-19T11:45:35.065Z,3.00
2017-12-19T11:46:35.062Z,3.09
2017-12-19T11:47:35.054Z,3.09
2017-12-19T11:48:35.050Z,2.87
2017-12-19T11:49:35.045Z,2.88
2017-12-19T11:50:35.039Z,2.70
2017-12-19T11:51:35.033Z,2.76
2017-12-19T11:52:35.032Z,2.64
2017-12-19T11:53:35.025Z,2.73
2017-12-19T11:54:35.017Z,2.65
2017-12-19T11:55:35.014Z,2.64
2017-12-19T11:56:35.010Z,2.75
2017-12-19T11:57:35.003Z,2.77
2017-12-19T11:58:34.998Z,2.75
2017-12-19T11:59:34.992Z,2.76
2017-12-19T12:00:34.986Z,2.79
2017-12-19T12:01:34.981Z,2.91
2017-12-19T12:02:34.987Z,2.90
2017-12-19T12:03:34.970Z,2.88
2017-12-19T12:04:34.964Z,2.83
2017-12-19T12:05:34.959Z,2.85
2017-12-19T12:06:34.953Z,2.85
2017-12-19T12:07:34.948Z,2.93
2017-12-19T12:08:34.943Z,2.93
2017-12-19T12:09:34.938Z,2.98
2017-12-19T12:10:34.931Z,2.93
2017-12-19T12:11:34.926Z,2.90
2017-12-19T12:12:34.926Z,2.93
2017-12-19T12:13:34.914Z,3.00
2017-12-19T12:14:34.908Z,2.95
2017-12-19T12:15:34.903Z,2.93
2017-12-19T12:16:34.898Z,2.94
2017-12-19T12:17:34.893Z,2.79
2017-12-19T12:18:34.886Z,2.73
2017-12-19T12:19:34.880Z,2.77
2017-12-19T12:20:34.874Z,2.88
2017-12-19T12:21:34.868Z,2.83
2017-12-19T12:22:34.863Z,2.88
2017-12-19T12:23:34.858Z,2.87
2017-12-19T12:24:34.852Z,2.76
2017-12-19T12:25:34.846Z,2.70
2017-12-19T12:26:34.840Z,2.70
2017-12-19T12:27:34.837Z,2.73
2017-12-19T12:28:34.834Z,2.72
2017-12-19T12:29:34.881Z,2.61
2017-12-19T12:30:34.816Z,2.57
2017-12-19T12:31:34.811Z,2.58
2017-12-19T12:32:34.804Z,2.59
2017-12-19T12:33:34.800Z,2.54
2017-12-19T12:34:34.791Z,2.55
2017-12-19T12:35:34.786Z,2.58
2017-12-19T12:36:34.789Z,2.44
2017-12-19T12:37:34.774Z,2.43
2017-12-19T12:38:34.767Z,2.36
2017-12-19T12:39:34.764Z,2.40
2017-12-19T12:40:34.755Z,2.40
2017-12-19T12:41:34.750Z,2.50
2017-12-19T12:42:34.748Z,2.44
2017-12-19T12:43:34.740Z,2.59
2017-12-19T12:44:34.730Z,2.68
2017-12-19T12:45:34.725Z,2.65
2017-12-19T12:46:34.719Z,2.68
2017-12-19T12:47:34.712Z,2.73
2017-12-19T12:48:34.713Z,2.75
2017-12-19T12:49:34.701Z,2.80
2017-12-19T12:50:34.693Z,2.72
2017-12-19T12:51:34.688Z,2.79
2017-12-19T12:52:34.682Z,2.80
2017-12-19T12:53:34.677Z,2.75
2017-12-19T12:54:34.669Z,2.76
2017-12-19T12:55:34.663Z,2.75
2017-12-19T12:56:34.658Z,2.76
2017-12-19T12:57:34.652Z,2.73
2017-12-19T12:58:34.645Z,2.70
2017-12-19T12:59:34.640Z,2.72
2017-12-19T13:00:34.635Z,2.87
2017-12-19T13:01:34.629Z,2.75
2017-12-19T13:02:34.622Z,2.68
2017-12-19T13:03:34.616Z,2.76
2017-12-19T13:04:34.611Z,2.77
2017-12-19T13:05:34.604Z,2.76
2017-12-19T13:06:34.598Z,2.76
2017-12-19T13:07:34.591Z,2.77
2017-12-19T13:08:34.587Z,2.82
2017-12-19T13:09:34.581Z,2.87
2017-12-19T13:10:34.574Z,2.95
2017-12-19T13:11:34.569Z,3.09
2017-12-19T13:12:34.562Z,3.06
2017-12-19T13:13:34.557Z,3.06
2017-12-19T13:14:34.550Z,3.00
2017-12-19T13:15:34.545Z,2.91
2017-12-19T13:16:34.540Z,2.85
2017-12-19T13:17:34.534Z,2.77
2017-12-19T13:18:34.527Z,2.77